createdAt,value
2023-02-14T00:00:58.075Z,102520.63
2023-02-14T00:03:25.020Z,102519.53
2023-02-14T00:05:51.796Z,102522.31
2023-02-14T00:08:18.521Z,102522.84
2023-02-14T00:10:45.215Z,102521.19
2023-02-14T00:13:11.840Z,102521.72
2023-02-14T00:15:38.509Z,102519.53
2023-02-14T00:18:06.253Z,102521.16
2023-02-14T00:20:33.050Z,102523.09
2023-02-14T00:23:00.870Z,102521.97
2023-02-14T00:25:27.683Z,102518.91
2023-02-14T00:28:13.063Z,102518.34
2023-02-14T00:30:39.884Z,102518.06
2023-02-14T00:33:06.634Z,102523.56
2023-02-14T00:35:33.356Z,102515.81
2023-02-14T00:38:00.080Z,102519.97
2023-02-14T00:40:27.533Z,102519.41
2023-02-14T00:42:57.120Z,102512.72
2023-02-14T00:45:24.057Z,102511.88
2023-02-14T00:47:52.259Z,102509.38
2023-02-14T00:50:18.960Z,102509.38
2023-02-14T00:52:45.560Z,102508.25
2023-02-14T00:55:12.184Z,102506.31
2023-02-14T00:57:38.815Z,102505.19
2023-02-14T01:00:06.294Z,102510.47
2023-02-14T01:02:33.142Z,102507.13
2023-02-14T01:05:00.189Z,102503.81
2023-02-14T01:07:27.021Z,102505.94
2023-02-14T01:09:53.798Z,102509.00
2023-02-14T01:12:20.560Z,102507.59
2023-02-14T01:14:47.153Z,102510.38
2023-02-14T01:17:13.766Z,102501.22
2023-02-14T01:19:42.532Z,102505.63
2023-02-14T01:22:09.174Z,102503.13
2023-02-14T01:24:35.971Z,102497.00
2023-02-14T01:27:02.647Z,102500.34
2023-02-14T01:29:29.627Z,102501.44
2023-02-14T01:31:56.291Z,102499.22
2023-02-14T01:34:25.087Z,102499.50
2023-02-14T01:36:52.060Z,102501.41
2023-02-14T01:39:19.012Z,102489.19
2023-02-14T01:41:50.252Z,102500.03
2023-02-14T01:44:16.952Z,102493.66
2023-02-14T01:46:45.243Z,102498.63
2023-02-14T01:49:20.407Z,102490.25
2023-02-14T01:51:57.081Z,102491.63
2023-02-14T01:54:27.295Z,102491.63
2023-02-14T01:57:01.004Z,102487.75
2023-02-14T01:59:32.233Z,102486.63
2023-02-14T02:01:59.658Z,102485.78
2023-02-14T02:04:35.254Z,102491.31
2023-02-14T02:07:07.256Z,102487.97
2023-02-14T02:09:49.014Z,102483.25
2023-02-14T02:12:15.730Z,102482.97
2023-02-14T02:14:43.604Z,102488.50
2023-02-14T02:17:38.166Z,102489.03
2023-02-14T02:20:30.138Z,102483.50
2023-02-14T02:23:00.888Z,102489.31
2023-02-14T02:25:39.560Z,102483.22
2023-02-14T02:28:40.149Z,102492.31
2023-02-14T02:31:21.976Z,102490.09
2023-02-14T02:34:11.900Z,102488.97
2023-02-14T02:37:23.516Z,102479.00
2023-02-14T02:39:56.554Z,102479.28
2023-02-14T02:42:38.466Z,102478.44
2023-02-14T02:45:27.576Z,102480.63
2023-02-14T02:48:00.259Z,102481.16
2023-02-14T02:51:12.376Z,102486.41
2023-02-14T02:53:46.264Z,102481.16
2023-02-14T02:56:41.556Z,102485.53
2023-02-14T02:59:25.455Z,102491.06
2023-02-14T03:01:57.556Z,102483.88
2023-02-14T03:04:44.602Z,102487.75
2023-02-14T03:07:30.134Z,102486.06
2023-02-14T03:09:59.504Z,102486.59
2023-02-14T03:12:41.085Z,102484.09
2023-02-14T03:15:26.113Z,102485.47
2023-02-14T03:18:08.739Z,102492.66
2023-02-14T03:21:02.832Z,102491.81
2023-02-14T03:23:36.144Z,102490.16
2023-02-14T03:26:33.793Z,102489.84
2023-02-14T03:29:15.771Z,102486.50
2023-02-14T03:32:11.465Z,102489.84
2023-02-14T03:34:44.163Z,102486.50
2023-02-14T03:37:28.697Z,102488.69
2023-02-14T03:40:17.976Z,102490.88
2023-02-14T03:42:55.820Z,102487.03
2023-02-14T03:45:29.179Z,102487.03
2023-02-14T03:48:01.204Z,102484.19
2023-02-14T03:50:29.869Z,102485.03
2023-02-14T03:52:59.098Z,102478.09
2023-02-14T03:55:36.289Z,102480.03
2023-02-14T03:58:16.473Z,102480.34
2023-02-14T04:00:46.430Z,102473.13
2023-02-14T04:03:15.520Z,102484.16
2023-02-14T04:05:46.656Z,102475.84
2023-02-14T04:08:23.788Z,102485.78
2023-02-14T04:10:53.086Z,102482.75
2023-02-14T04:13:20.652Z,102486.59
2023-02-14T04:15:47.299Z,102484.44
2023-02-14T04:18:32.627Z,102483.56
2023-02-14T04:21:00.762Z,102482.44
2023-02-14T04:23:27.713Z,102478.03
2023-02-14T04:25:54.470Z,102480.78
2023-02-14T04:28:21.250Z,102482.94
2023-02-14T04:30:48.250Z,102473.25
2023-02-14T04:33:15.064Z,102470.75
2023-02-14T04:35:41.884Z,102473.53
2023-02-14T04:38:08.718Z,102473.53
2023-02-14T04:40:35.450Z,102472.63
2023-02-14T04:43:02.280Z,102475.66
2023-02-14T04:45:28.918Z,102472.38
2023-02-14T04:47:55.599Z,102467.94
2023-02-14T04:50:23.495Z,102467.34
2023-02-14T04:52:50.169Z,102465.09
2023-02-14T04:55:16.883Z,102466.22
2023-02-14T04:57:44.253Z,102469.00
2023-02-14T05:00:11.614Z,102466.47
2023-02-14T05:02:38.208Z,102470.06
2023-02-14T05:05:05.217Z,102464.50
2023-02-14T05:07:31.933Z,102463.66
2023-02-14T05:09:58.710Z,102455.94
2023-02-14T05:12:25.735Z,102457.84
2023-02-14T05:14:52.428Z,102460.06
2023-02-14T05:17:19.116Z,102449.56
2023-02-14T05:19:45.945Z,102462.81
2023-02-14T05:22:12.758Z,102457.28
2023-02-14T05:24:39.856Z,102453.44
2023-02-14T05:27:07.644Z,102445.09
2023-02-14T05:29:34.317Z,102448.94
2023-02-14T05:32:01.200Z,102443.41
2023-02-14T05:34:28.122Z,102442.25
2023-02-14T05:36:55.041Z,102446.69
2023-02-14T05:39:21.732Z,102447.78
2023-02-14T05:41:48.535Z,102446.13
2023-02-14T05:44:15.347Z,102444.44
2023-02-14T05:46:41.957Z,102438.09
2023-02-14T05:49:08.798Z,102442.78
2023-02-14T05:51:35.381Z,102454.31
2023-02-14T05:54:02.080Z,102444.09
2023-02-14T05:56:28.826Z,102441.59
2023-02-14T05:58:55.545Z,102435.47
2023-02-14T06:01:22.552Z,102449.31
2023-02-14T06:03:49.404Z,102441.59
2023-02-14T06:06:16.246Z,102437.44
2023-02-14T06:08:43.038Z,102444.31
2023-02-14T06:11:09.765Z,102442.63
2023-02-14T06:13:36.521Z,102441.59
2023-02-14T06:16:04.804Z,102443.25
2023-02-14T06:18:31.577Z,102445.97
2023-02-14T06:20:58.635Z,102449.00
2023-02-14T06:23:26.102Z,102444.84
2023-02-14T06:25:52.828Z,102441.75
2023-02-14T06:28:19.488Z,102441.44
2023-02-14T06:30:47.403Z,102445.88
2023-02-14T06:33:14.430Z,102436.47
2023-02-14T06:35:41.006Z,102442.00
2023-02-14T06:38:07.580Z,102440.00
2023-02-14T06:40:34.325Z,102446.91
2023-02-14T06:43:00.925Z,102440.00
2023-02-14T06:45:27.768Z,102451.59
2023-02-14T06:47:54.399Z,102447.13
2023-02-14T06:50:21.133Z,102442.97
2023-02-14T06:52:48.397Z,102447.94
2023-02-14T06:55:15.094Z,102451.25
2023-02-14T06:57:41.766Z,102448.50
2023-02-14T07:00:10.152Z,102451.19
2023-02-14T07:02:37.065Z,102454.28
2023-02-14T07:05:03.991Z,102463.94
2023-02-14T07:07:30.699Z,102464.59
2023-02-14T07:09:57.375Z,102455.66
2023-02-14T07:12:24.076Z,102455.56
2023-02-14T07:14:50.882Z,102450.22
2023-02-14T07:17:17.804Z,102453.50
2023-02-14T07:19:44.390Z,102448.53
2023-02-14T07:22:11.065Z,102459.09
2023-02-14T07:24:37.794Z,102463.25
2023-02-14T07:27:04.490Z,102473.00
2023-02-14T07:29:31.357Z,102469.09
2023-02-14T07:31:58.111Z,102473.00
2023-02-14T07:34:24.848Z,102464.69
2023-02-14T07:36:51.409Z,102465.78
2023-02-14T07:39:18.006Z,102467.38
2023-02-14T07:41:44.827Z,102466.56
2023-02-14T07:44:11.920Z,102462.97
2023-02-14T07:46:38.764Z,102468.50
2023-02-14T07:49:05.677Z,102459.59
2023-02-14T07:51:32.255Z,102466.25
2023-02-14T07:53:59.087Z,102463.47
2023-02-14T07:56:25.863Z,102468.50
2023-02-14T07:58:52.520Z,102460.69
2023-02-14T08:01:19.584Z,102459.34
2023-02-14T08:03:49.533Z,102460.00
2023-02-14T08:06:17.671Z,102460.63
2023-02-14T08:08:45.317Z,102465.22
2023-02-14T08:11:12.530Z,102454.31
2023-02-14T08:13:39.359Z,102456.66
2023-02-14T08:16:06.524Z,102454.00
2023-02-14T08:18:40.027Z,102456.97
2023-02-14T08:21:09.319Z,102462.91
2023-02-14T08:23:37.330Z,102457.66
2023-02-14T08:26:04.589Z,102453.53
2023-02-14T08:28:33.161Z,102457.28
2023-02-14T08:31:00.624Z,102452.91
2023-02-14T08:33:27.612Z,102464.28
2023-02-14T08:35:54.288Z,102464.00
2023-02-14T08:38:21.007Z,102462.09
2023-02-14T08:40:47.833Z,102460.47
2023-02-14T08:43:15.447Z,102470.19
2023-02-14T08:45:42.706Z,102465.84
2023-02-14T08:48:12.226Z,102458.94
2023-02-14T08:50:40.113Z,102465.03
2023-02-14T08:53:12.267Z,102463.63
2023-02-14T08:55:40.349Z,102460.31
2023-02-14T08:58:07.775Z,102447.03
2023-02-14T09:00:35.122Z,102459.53
2023-02-14T09:03:02.287Z,102457.59
2023-02-14T09:05:29.221Z,102452.59
2023-02-14T09:07:56.619Z,102453.72
2023-02-14T09:10:24.559Z,102449.81
2023-02-14T09:12:52.227Z,102449.00
2023-02-14T09:15:19.071Z,102443.47
2023-02-14T09:17:45.776Z,102446.53
2023-02-14T09:20:15.068Z,102452.09
2023-02-14T09:22:42.094Z,102454.28
2023-02-14T09:25:09.488Z,102446.25
2023-02-14T09:27:36.244Z,102447.66
2023-02-14T09:30:03.295Z,102455.44
2023-02-14T09:32:30.281Z,102452.66
2023-02-14T09:35:16.010Z,102446.03
2023-02-14T09:37:42.707Z,102441.00
2023-02-14T09:40:14.563Z,102442.41
2023-02-14T09:43:00.744Z,102441.00
2023-02-14T09:45:31.390Z,102435.75
2023-02-14T09:48:07.413Z,102443.22
2023-02-14T09:50:46.123Z,102427.69
2023-02-14T09:53:15.900Z,102421.00
2023-02-14T09:56:17.584Z,102424.09
2023-02-14T09:59:01.723Z,102416.56
2023-02-14T10:01:42.925Z,102418.81
2023-02-14T10:04:27.870Z,102417.69
2023-02-14T10:07:16.625Z,102418.22
2023-02-14T10:10:18.780Z,102414.88
2023-02-14T10:12:51.699Z,102408.75
2023-02-14T10:15:26.204Z,102409.31
2023-02-14T10:18:01.909Z,102409.63
2023-02-14T10:20:37.600Z,102412.69
2023-02-14T10:23:15.212Z,102404.88
2023-02-14T10:25:51.043Z,102402.13
2023-02-14T10:28:24.732Z,102409.03
2023-02-14T10:31:22.625Z,102401.28
2023-02-14T10:34:12.624Z,102404.34
2023-02-14T10:37:03.856Z,102399.59
2023-02-14T10:39:39.537Z,102404.88
2023-02-14T10:42:26.973Z,102406.53
2023-02-14T10:44:59.463Z,102398.78
2023-02-14T10:47:38.065Z,102403.19
2023-02-14T10:50:26.762Z,102397.06
2023-02-14T10:53:05.177Z,102395.41
2023-02-14T10:55:43.990Z,102387.63
2023-02-14T10:58:15.268Z,102385.66
2023-02-14T11:00:56.137Z,102381.78
2023-02-14T11:03:23.979Z,102392.59
2023-02-14T11:05:51.985Z,102389.25
2023-02-14T11:08:32.323Z,102385.38
2023-02-14T11:11:08.001Z,102383.13
2023-02-14T11:13:37.711Z,102380.34
2023-02-14T11:16:10.995Z,102376.44
2023-02-14T11:18:41.301Z,102378.06
2023-02-14T11:21:12.334Z,102377.81
2023-02-14T11:23:44.656Z,102383.00
2023-02-14T11:26:33.244Z,102371.03
2023-02-14T11:29:11.061Z,102371.28
2023-02-14T11:31:39.786Z,102358.38
2023-02-14T11:34:36.785Z,102365.34
2023-02-14T11:37:16.099Z,102357.56
2023-02-14T11:39:43.019Z,102353.84
2023-02-14T11:42:12.543Z,102341.03
2023-02-14T11:44:54.839Z,102338.94
2023-02-14T11:47:30.319Z,102341.13
2023-02-14T11:50:20.269Z,102342.28
2023-02-14T11:52:52.084Z,102327.81
2023-02-14T11:55:34.505Z,102316.09
2023-02-14T11:58:05.474Z,102319.47
2023-02-14T12:00:33.776Z,102313.31
2023-02-14T12:03:05.610Z,102307.72
2023-02-14T12:05:37.296Z,102306.66
2023-02-14T12:08:08.055Z,102297.19
2023-02-14T12:10:37.477Z,102287.72
2023-02-14T12:13:10.136Z,102289.91
2023-02-14T12:15:40.395Z,102287.13
2023-02-14T12:18:38.234Z,102283.00
2023-02-14T12:21:35.326Z,102273.50
2023-02-14T12:24:23.079Z,102267.63
2023-02-14T12:27:04.045Z,102263.69
2023-02-14T12:29:39.900Z,102262.25
2023-02-14T12:32:21.408Z,102260.88
2023-02-14T12:34:48.814Z,102260.88
2023-02-14T12:37:27.674Z,102259.25
2023-02-14T12:40:09.910Z,102247.53
2023-02-14T12:42:45.762Z,102246.13
2023-02-14T12:45:18.025Z,102248.00
2023-02-14T12:48:04.918Z,102244.69
2023-02-14T12:50:53.286Z,102243.38
2023-02-14T12:53:43.449Z,102242.19
2023-02-14T12:56:36.588Z,102239.13
2023-02-14T12:59:32.177Z,102238.06
2023-02-14T13:02:26.525Z,102218.00
2023-02-14T13:04:58.340Z,102220.19
2023-02-14T13:07:53.053Z,102212.38
2023-02-14T13:10:51.331Z,102215.41
2023-02-14T13:13:23.887Z,102210.72
2023-02-14T13:16:05.539Z,102208.97
2023-02-14T13:18:44.542Z,102208.66
2023-02-14T13:21:16.274Z,102197.25
2023-02-14T13:23:50.105Z,102191.06
2023-02-14T13:26:25.120Z,102189.91
2023-02-14T13:29:20.399Z,102190.13
2023-02-14T13:31:48.638Z,102199.84
2023-02-14T13:34:30.670Z,102195.13
2023-02-14T13:36:58.856Z,102185.88
2023-02-14T13:39:37.793Z,102184.22
2023-02-14T13:42:06.160Z,102190.06
2023-02-14T13:44:38.844Z,102183.28
2023-02-14T13:47:07.752Z,102173.72
2023-02-14T13:49:38.578Z,102170.09
2023-02-14T13:52:06.608Z,102170.56
2023-02-14T13:54:48.776Z,102171.84
2023-02-14T13:57:31.673Z,102164.16
2023-02-14T14:00:16.438Z,102169.50
2023-02-14T14:02:51.479Z,102171.41
2023-02-14T14:05:30.185Z,102167.44
2023-02-14T14:08:21.384Z,102170.22
2023-02-14T14:10:55.534Z,102175.19
2023-02-14T14:13:40.667Z,102167.94
2023-02-14T14:16:28.691Z,102158.47
2023-02-14T14:18:57.640Z,102156.19
2023-02-14T14:21:44.762Z,102150.88
2023-02-14T14:24:29.233Z,102147.69
2023-02-14T14:27:03.909Z,102144.06
2023-02-14T14:29:38.023Z,102140.75
2023-02-14T14:32:24.828Z,102144.06
2023-02-14T14:34:57.594Z,102145.03
2023-02-14T14:37:27.669Z,102135.38
2023-02-14T14:39:58.410Z,102136.66
2023-02-14T14:42:29.252Z,102133.69
2023-02-14T14:45:07.021Z,102136.56
2023-02-14T14:47:43.570Z,102129.94
2023-02-14T14:50:18.371Z,102134.91
2023-02-14T14:53:15.507Z,102132.94
2023-02-14T14:55:46.109Z,102129.34
2023-02-14T14:58:34.214Z,102130.41
2023-02-14T15:01:00.968Z,102131.84
2023-02-14T15:03:29.262Z,102125.94
2023-02-14T15:06:19.020Z,102128.22
2023-02-14T15:08:46.334Z,102126.78
2023-02-14T15:11:34.785Z,102131.59
2023-02-14T15:14:05.761Z,102131.84
2023-02-14T15:16:36.518Z,102132.44
2023-02-14T15:19:40.972Z,102128.81
2023-02-14T15:22:19.731Z,102128.13
2023-02-14T15:24:47.276Z,102129.88
2023-02-14T15:27:20.232Z,102120.34
2023-02-14T15:30:19.207Z,102127.50
2023-02-14T15:32:47.817Z,102126.91
2023-02-14T15:35:16.313Z,102126.00
2023-02-14T15:37:45.331Z,102116.38
2023-02-14T15:40:23.219Z,102124.47
2023-02-14T15:42:56.562Z,102118.28
2023-02-14T15:45:28.805Z,102118.66
2023-02-14T15:47:56.484Z,102108.22
2023-02-14T15:50:29.844Z,102115.31
2023-02-14T15:53:05.114Z,102120.31
2023-02-14T15:55:33.521Z,102113.56
2023-02-14T15:58:04.365Z,102104.69
2023-02-14T16:00:31.911Z,102108.81
2023-02-14T16:03:12.393Z,102111.38
2023-02-14T16:05:45.860Z,102112.81
2023-02-14T16:08:34.152Z,102108.69
2023-02-14T16:11:05.390Z,102105.63
2023-02-14T16:13:33.730Z,102113.81
2023-02-14T16:16:01.841Z,102105.53
2023-02-14T16:18:41.462Z,102106.38
2023-02-14T16:21:54.687Z,102112.56
2023-02-14T16:24:40.432Z,102114.84
2023-02-14T16:27:07.088Z,102106.34
2023-02-14T16:29:36.832Z,102106.94
2023-02-14T16:32:18.799Z,102114.22
2023-02-14T16:34:47.474Z,102106.47
2023-02-14T16:37:31.627Z,102117.91
2023-02-14T16:40:00.653Z,102112.00
2023-02-14T16:42:28.101Z,102117.63
2023-02-14T16:44:55.223Z,102114.09
2023-02-14T16:47:22.502Z,102111.63
2023-02-14T16:49:50.702Z,102116.81
2023-02-14T16:52:24.859Z,102118.66
2023-02-14T16:54:52.479Z,102118.44
2023-02-14T16:57:24.347Z,102127.16
2023-02-14T16:59:51.754Z,102124.75
2023-02-14T17:02:19.204Z,102127.53
2023-02-14T17:04:45.948Z,102129.06
2023-02-14T17:07:15.573Z,102134.09
2023-02-14T17:09:48.472Z,102139.53
2023-02-14T17:12:23.688Z,102139.19
2023-02-14T17:14:56.059Z,102130.44
2023-02-14T17:17:22.916Z,102140.75
2023-02-14T17:19:51.554Z,102141.34
2023-02-14T17:22:19.685Z,102143.63
2023-02-14T17:24:46.363Z,102141.91
2023-02-14T17:27:13.064Z,102135.28
2023-02-14T17:29:39.724Z,102144.78
2023-02-14T17:32:06.676Z,102140.94
2023-02-14T17:34:33.910Z,102145.59
2023-02-14T17:37:00.541Z,102142.00
2023-02-14T17:39:27.126Z,102141.78
2023-02-14T17:41:56.545Z,102145.44
2023-02-14T17:44:23.245Z,102137.63
2023-02-14T17:46:50.252Z,102135.97
2023-02-14T17:49:16.998Z,102138.00
2023-02-14T17:51:43.761Z,102145.25
2023-02-14T17:54:11.180Z,102142.53
2023-02-14T17:56:38.130Z,102143.97
2023-02-14T17:59:04.762Z,102139.00
2023-02-14T18:01:34.305Z,102135.09
2023-02-14T18:04:01.074Z,102139.00
2023-02-14T18:06:27.799Z,102133.84
2023-02-14T18:08:57.072Z,102135.19
2023-02-14T18:11:25.856Z,102133.00
2023-02-14T18:13:58.043Z,102139.28
2023-02-14T18:16:25.326Z,102137.06
2023-02-14T18:18:52.318Z,102123.84
2023-02-14T18:21:21.810Z,102124.28
2023-02-14T18:23:48.736Z,102118.28
2023-02-14T18:26:17.026Z,102122.72
2023-02-14T18:28:44.021Z,102116.50
2023-02-14T18:31:14.020Z,102119.59
2023-02-14T18:33:41.571Z,102111.41
2023-02-14T18:36:14.373Z,102115.59
2023-02-14T18:38:43.488Z,102113.47
2023-02-14T18:41:13.298Z,102107.38
2023-02-14T18:43:43.554Z,102109.66
2023-02-14T18:46:13.601Z,102109.75
2023-02-14T18:48:40.531Z,102114.41
2023-02-14T18:51:11.907Z,102114.28
2023-02-14T18:53:39.445Z,102103.72
2023-02-14T18:56:18.188Z,102107.63
2023-02-14T18:58:48.005Z,102105.44
2023-02-14T19:01:18.222Z,102105.03
2023-02-14T19:03:45.547Z,102099.59
2023-02-14T19:06:13.094Z,102090.72
2023-02-14T19:08:40.728Z,102085.53
2023-02-14T19:11:12.454Z,102082.41
2023-02-14T19:13:39.756Z,102081.00
2023-02-14T19:16:14.864Z,102080.22
2023-02-14T19:18:41.695Z,102082.81
2023-02-14T19:21:17.393Z,102078.28
2023-02-14T19:23:44.429Z,102070.63
2023-02-14T19:26:16.643Z,102072.69
2023-02-14T19:28:44.712Z,102074.00
2023-02-14T19:31:11.873Z,102065.66
2023-02-14T19:33:43.898Z,102064.63
2023-02-14T19:36:13.148Z,102054.94
2023-02-14T19:38:40.175Z,102062.34
2023-02-14T19:41:15.074Z,102058.22
2023-02-14T19:43:41.828Z,102065.88
2023-02-14T19:46:08.501Z,102055.97
2023-02-14T19:48:35.280Z,102059.25
2023-02-14T19:51:02.165Z,102062.34
2023-02-14T19:53:29.447Z,102056.59
2023-02-14T19:55:56.383Z,102056.94
2023-02-14T19:58:25.357Z,102060.16
2023-02-14T20:01:00.056Z,102060.69
2023-02-14T20:03:27.098Z,102048.53
2023-02-14T20:05:53.711Z,102059.25
2023-02-14T20:08:20.375Z,102053.38
2023-02-14T20:10:47.575Z,102062.94
2023-02-14T20:13:14.381Z,102060.31
2023-02-14T20:15:41.520Z,102056.16
2023-02-14T20:18:08.386Z,102050.50
2023-02-14T20:20:55.160Z,102047.47
2023-02-14T20:23:22.548Z,102051.81
2023-02-14T20:25:49.343Z,102050.97
2023-02-14T20:28:16.129Z,102045.63
2023-02-14T20:30:42.802Z,102041.25
2023-02-14T20:33:09.570Z,102040.28
2023-02-14T20:35:40.564Z,102040.81
2023-02-14T20:38:07.814Z,102043.44
2023-02-14T20:40:42.739Z,102042.72
2023-02-14T20:43:09.334Z,102035.69
2023-02-14T20:45:36.013Z,102040.00
2023-02-14T20:48:04.244Z,102036.91
2023-02-14T20:50:31.554Z,102030.72
2023-02-14T20:52:58.560Z,102023.94
2023-02-14T20:55:27.096Z,102024.78
2023-02-14T20:57:54.578Z,102028.28
2023-02-14T21:00:25.644Z,102021.78
2023-02-14T21:02:52.954Z,102017.97
2023-02-14T21:05:20.951Z,102020.66
2023-02-14T21:07:47.736Z,102030.06
2023-02-14T21:10:16.737Z,102020.78
2023-02-14T21:12:43.772Z,102025.00
2023-02-14T21:15:11.398Z,102020.09
2023-02-14T21:17:38.076Z,102018.22
2023-02-14T21:20:05.862Z,102025.75
2023-02-14T21:22:32.791Z,102024.72
2023-02-14T21:24:59.436Z,102015.81
2023-02-14T21:27:26.357Z,102019.53
2023-02-14T21:29:53.188Z,102015.00
2023-02-14T21:32:20.115Z,102013.59
2023-02-14T21:34:47.454Z,102012.53
2023-02-14T21:37:14.234Z,102023.66
2023-02-14T21:39:41.439Z,102013.59
2023-02-14T21:42:09.325Z,102010.56
2023-02-14T21:44:54.905Z,102007.84
2023-02-14T21:47:21.987Z,102007.56
2023-02-14T21:50:06.978Z,102003.97
2023-02-14T21:52:34.069Z,102007.22
2023-02-14T21:55:00.768Z,101987.69
2023-02-14T21:57:27.511Z,101995.69
2023-02-14T21:59:54.152Z,102004.41
2023-02-14T22:02:20.929Z,101999.00
2023-02-14T22:04:47.768Z,101992.97
2023-02-14T22:07:14.412Z,101995.81
2023-02-14T22:09:41.227Z,101996.44
2023-02-14T22:12:07.973Z,101995.97
2023-02-14T22:14:34.810Z,101991.63
2023-02-14T22:17:01.688Z,101985.00
2023-02-14T22:19:28.649Z,101984.53
2023-02-14T22:21:55.437Z,101985.75
2023-02-14T22:24:22.248Z,101994.97
2023-02-14T22:26:49.073Z,101993.13
2023-02-14T22:29:15.927Z,101991.81
2023-02-14T22:31:43.886Z,101994.66
2023-02-14T22:34:13.359Z,101991.34
2023-02-14T22:36:40.278Z,101993.91
2023-02-14T22:39:07.526Z,101982.84
2023-02-14T22:41:37.756Z,101984.28
2023-02-14T22:44:05.091Z,101985.75
2023-02-14T22:46:32.292Z,101984.38
2023-02-14T22:48:58.990Z,101980.25
2023-02-14T22:51:37.772Z,101979.16
2023-02-14T22:54:13.438Z,101980.38
2023-02-14T22:56:43.540Z,101984.84
2023-02-14T22:59:22.524Z,101981.53
2023-02-14T23:01:51.148Z,101982.13
2023-02-14T23:04:21.621Z,101973.81
2023-02-14T23:06:48.413Z,101970.50
2023-02-14T23:09:15.575Z,101977.25
2023-02-14T23:11:44.404Z,101970.63
2023-02-14T23:14:31.182Z,101965.13
2023-02-14T23:17:16.676Z,101963.75
2023-02-14T23:20:03.254Z,101978.47
2023-02-14T23:22:32.864Z,101976.28
2023-02-14T23:25:03.562Z,101968.00
2023-02-14T23:27:33.436Z,101984.19
2023-02-14T23:30:00.723Z,101979.78
2023-02-14T23:32:27.704Z,101972.59
2023-02-14T23:34:54.433Z,101962.91
2023-02-14T23:37:21.185Z,101966.78
2023-02-14T23:39:47.982Z,101967.63
2023-02-14T23:42:16.049Z,101971.56
2023-02-14T23:44:44.348Z,101969.38
2023-02-14T23:47:13.185Z,101967.72
2023-02-14T23:49:40.946Z,101966.66
2023-02-14T23:52:10.608Z,101962.22
2023-02-14T23:54:37.951Z,101961.69
2023-02-14T23:57:05.696Z,101957.53
2023-02-14T23:59:32.487Z,101956.13
